Terminal Aerodrome Forecast
Issued by NWS Mt. Holly, NJ

Home | Current Version | Previous Version | Text Only | Print | Product List | Glossary On
Versions: 1 2 3 4 5 6 7 8 9 10 11 12
000
FTUS41 KPHI 231141
TAFILG
TAF
KILG 231141Z 2312/2412 27007KT P6SM SCT060
     FM231600 29012G20KT P6SM SCT050
      TEMPO 2320/2322 SHRA
     FM232300 27010KT P6SM SKC
     FM240500 VRB02KT P6SM SKC=

USA.gov is the U.S. government's official web portal to all federal, state and local government web resources and services.